Time;durP1;ratioP1;P1;durP2;ratioP2;P2;SDS_P1;SDS_P2;PMS_P1;PMS_P2;Temp;Humidity;BMP_temperature;BMP_pressure;BME280_temperature;BME280_humidity;BME280_pressure;Samples;Min_cycle;Max_cycle;Signal;HPM_P1;HPM_P2
2022/05/30 00:01:15;;;;;;;1.07;0.90;;;20.60;39.70;;;;;;4981608;28;20521;-58
2022/05/30 00:03:41;;;;;;;0.80;0.80;;;20.60;39.70;;;;;;4979570;28;20421;-58
2022/05/30 00:06:14;;;;;;;0.97;0.90;;;20.60;39.70;;;;;;4975313;28;20454;-58
2022/05/30 00:08:40;;;;;;;0.83;0.80;;;20.60;39.70;;;;;;4979406;28;20236;-58
2022/05/30 00:11:08;;;;;;;0.80;0.80;;;20.60;39.70;;;;;;4983789;28;20970;-58
2022/05/30 00:13:34;;;;;;;0.80;0.80;;;20.60;39.70;;;;;;4978989;28;20220;-58
2022/05/30 00:16:08;;;;;;;0.70;0.70;;;20.60;39.70;;;;;;4982805;28;20795;-58
2022/05/30 00:18:34;;;;;;;2.03;1.10;;;20.60;39.70;;;;;;4984012;28;20437;-58
2022/05/30 00:20:59;;;;;;;0.83;0.83;;;20.60;39.70;;;;;;4981893;28;20886;-58
2022/05/30 00:23:25;;;;;;;1.00;0.90;;;20.60;39.80;;;;;;4974090;28;20224;-58
2022/05/30 00:25:51;;;;;;;0.80;0.80;;;20.60;39.70;;;;;;4985800;28;20224;-58
2022/05/30 00:28:17;;;;;;;0.93;0.93;;;20.60;39.70;;;;;;4983029;28;20405;-58
2022/05/30 00:30:45;;;;;;;1.00;0.90;;;20.60;39.70;;;;;;4977824;28;20657;-58
2022/05/30 00:33:12;;;;;;;0.93;0.93;;;20.60;39.70;;;;;;4983889;28;20239;-58
2022/05/30 00:35:38;;;;;;;0.80;0.80;;;20.60;39.70;;;;;;4984923;28;20525;-58
2022/05/30 00:38:04;;;;;;;0.80;0.73;;;20.60;39.70;;;;;;4986942;28;20470;-58
2022/05/30 00:40:31;;;;;;;0.77;0.77;;;20.60;39.70;;;;;;4985405;28;20485;-58
2022/05/30 00:43:15;;;;;;;1.50;1.40;;;20.60;39.70;;;;;;4980386;28;20437;-58
2022/05/30 00:45:41;;;;;;;0.80;0.80;;;20.60;39.70;;;;;;4985193;28;20425;-58
2022/05/30 00:48:08;;;;;;;0.90;0.90;;;20.60;39.70;;;;;;4982218;28;20462;-58
2022/05/30 00:50:34;;;;;;;1.00;0.90;;;20.60;39.70;;;;;;4981071;28;20220;-58
2022/05/30 00:53:00;;;;;;;1.10;1.00;;;20.60;39.70;;;;;;4984399;28;20493;-58
2022/05/30 00:55:26;;;;;;;0.77;0.70;;;20.60;39.70;;;;;;4980824;28;20490;-58
2022/05/30 00:57:51;;;;;;;1.10;1.00;;;20.60;39.70;;;;;;4981140;28;20229;-58
2022/05/30 01:00:25;;;;;;;1.17;0.93;;;20.60;39.70;;;;;;4983722;28;20243;-58
2022/05/30 01:06:30;;;;;;;1.10;0.97;;;20.60;39.70;;;;;;4979736;28;20239;-58
2022/05/30 01:08:26;;;;;;;1.07;0.97;;;20.60;39.70;;;;;;4979787;28;20532;-58
2022/05/30 01:10:52;;;;;;;1.30;0.87;;;20.60;39.70;;;;;;4982469;28;20455;-58
2022/05/30 01:13:18;;;;;;;1.00;0.80;;;20.60;39.70;;;;;;4979391;28;20443;-57
2022/05/30 01:15:43;;;;;;;0.80;0.80;;;20.60;39.70;;;;;;4980962;28;20220;-58
2022/05/30 01:18:23;;;;;;;1.30;1.20;;;20.60;39.70;;;;;;4980368;28;20275;-58
2022/05/30 01:21:42;;;;;;;1.03;0.80;;;20.60;39.70;;;;;;4980578;28;20387;-58
2022/05/30 01:24:14;;;;;;;1.00;0.90;;;20.60;39.70;;;;;;4978205;28;20512;-58
2022/05/30 01:26:54;;;;;;;1.00;0.90;;;20.60;39.70;;;;;;4990932;28;20842;-58
2022/05/30 01:29:34;;;;;;;0.87;0.87;;;20.60;39.70;;;;;;4975050;28;20894;-58
2022/05/30 01:32:00;;;;;;;1.00;0.90;;;20.60;39.70;;;;;;4980546;28;20855;-58
2022/05/30 01:34:27;;;;;;;0.80;0.80;;;20.60;39.80;;;;;;4982682;28;20462;-58
2022/05/30 01:36:53;;;;;;;0.93;0.90;;;20.60;39.70;;;;;;4976402;28;20352;-58
2022/05/30 01:39:19;;;;;;;0.80;0.80;;;20.50;39.70;;;;;;4987861;28;20425;-58
2022/05/30 01:41:45;;;;;;;0.80;0.80;;;20.60;39.70;;;;;;4984883;28;20225;-58
2022/05/30 01:44:11;;;;;;;1.17;0.90;;;20.60;40.50;;;;;;4983760;28;20501;-58
2022/05/30 01:46:36;;;;;;;1.20;0.97;;;20.60;39.70;;;;;;4986065;28;20455;-58
2022/05/30 01:49:03;;;;;;;0.90;0.90;;;20.60;39.70;;;;;;4978495;28;20227;-58
2022/05/30 01:51:29;;;;;;;1.00;0.90;;;20.60;39.70;;;;;;4982737;28;20308;-58
2022/05/30 01:53:54;;;;;;;0.80;0.80;;;20.60;39.70;;;;;;4985489;28;20512;-58
2022/05/30 01:56:20;;;;;;;1.00;0.90;;;20.60;39.70;;;;;;4975662;28;20733;-59
2022/05/30 01:58:46;;;;;;;0.80;0.80;;;20.60;39.70;;;;;;4971992;28;20280;-59
2022/05/30 02:01:18;;;;;;;0.93;0.90;;;20.60;39.70;;;;;;4970964;28;20225;-59
2022/05/30 02:03:45;;;;;;;1.07;0.97;;;20.60;39.70;;;;;;4964092;28;20221;-58
2022/05/30 02:06:11;;;;;;;1.00;0.93;;;20.60;39.70;;;;;;4973600;28;20433;-59
2022/05/30 02:08:37;;;;;;;1.30;1.00;;;20.60;39.70;;;;;;4968240;28;20461;-58
2022/05/30 02:11:03;;;;;;;0.90;0.90;;;20.60;39.70;;;;;;4967140;28;20521;-58
2022/05/30 02:13:28;;;;;;;1.47;1.37;;;20.60;39.70;;;;;;4971553;28;20578;-58
2022/05/30 02:18:38;;;;;;;1.20;0.90;;;20.60;39.70;;;;;;4969874;28;20251;-58
2022/05/30 02:21:04;;;;;;;1.20;0.77;;;20.60;39.70;;;;;;4968338;28;20482;-58
2022/05/30 02:23:30;;;;;;;1.10;1.00;;;20.60;39.70;;;;;;4965604;28;20234;-58
2022/05/30 02:25:55;;;;;;;0.90;0.90;;;20.60;40.10;;;;;;4968299;28;20232;-58
2022/05/30 02:28:21;;;;;;;0.80;0.80;;;20.60;39.70;;;;;;4978630;28;20259;-58
2022/05/30 02:30:46;;;;;;;1.00;0.90;;;20.60;39.70;;;;;;4977819;28;20235;-57
2022/05/30 02:38:41;;;;;;;0.93;0.90;;;20.60;39.70;;;;;;4986219;28;20445;-58
2022/05/30 02:41:06;;;;;;;0.70;0.70;;;20.60;39.70;;;;;;4977973;28;20807;-58
2022/05/30 02:43:32;;;;;;;0.90;0.90;;;20.60;39.80;;;;;;4970567;28;20252;-58
2022/05/30 02:45:57;;;;;;;1.00;0.90;;;20.60;39.70;;;;;;4968606;28;20279;-58
2022/05/30 02:48:23;;;;;;;1.07;0.97;;;20.60;39.70;;;;;;4962551;28;20236;-58
2022/05/30 02:50:48;;;;;;;2.27;0.90;;;20.60;39.70;;;;;;4964791;28;20233;-58
2022/05/30 02:53:14;;;;;;;1.20;1.00;;;20.60;39.70;;;;;;4967957;28;20316;-58
2022/05/30 02:55:40;;;;;;;0.80;0.80;;;20.60;39.70;;;;;;4964833;28;20224;-57
2022/05/30 02:58:06;;;;;;;0.70;0.70;;;20.60;39.70;;;;;;4967272;28;20240;-58
2022/05/30 03:00:31;;;;;;;0.80;0.80;;;20.50;39.70;;;;;;4972113;28;20233;-58
2022/05/30 03:02:57;;;;;;;1.20;1.10;;;20.50;39.70;;;;;;4966985;28;20303;-58
2022/05/30 03:05:22;;;;;;;1.73;0.90;;;20.60;39.70;;;;;;4973302;28;20238;-58
2022/05/30 03:07:48;;;;;;;0.77;0.77;;;20.50;39.70;;;;;;4969585;28;20225;-58
2022/05/30 03:10:13;;;;;;;0.90;0.90;;;20.60;39.70;;;;;;4962407;28;20220;-58
2022/05/30 03:12:39;;;;;;;0.90;0.80;;;20.60;39.70;;;;;;4974097;28;20229;-57
2022/05/30 03:15:05;;;;;;;0.87;0.87;;;20.50;39.70;;;;;;4967709;28;20633;-58
2022/05/30 03:17:31;;;;;;;0.83;0.83;;;20.50;39.70;;;;;;4964409;28;20233;-58
2022/05/30 03:19:56;;;;;;;0.80;0.80;;;20.60;39.70;;;;;;4975765;28;21509;-58
2022/05/30 03:22:22;;;;;;;1.03;0.90;;;20.50;39.70;;;;;;4965947;28;20216;-59
2022/05/30 03:24:48;;;;;;;0.93;0.93;;;20.60;39.70;;;;;;4970649;28;20232;-58
2022/05/30 03:27:13;;;;;;;0.77;0.70;;;20.50;39.70;;;;;;4970194;28;20851;-58
2022/05/30 03:29:39;;;;;;;1.03;0.93;;;20.50;39.70;;;;;;4964220;28;20225;-58
2022/05/30 03:32:05;;;;;;;1.17;1.03;;;20.50;39.70;;;;;;4970721;28;20711;-58
2022/05/30 03:34:31;;;;;;;1.10;1.00;;;20.50;39.70;;;;;;4971123;28;20235;-58
2022/05/30 03:36:56;;;;;;;0.80;0.80;;;20.50;39.70;;;;;;4963399;28;20459;-58
2022/05/30 03:39:22;;;;;;;1.00;0.90;;;20.60;39.70;;;;;;4969732;28;20263;-58
2022/05/30 03:41:47;;;;;;;0.80;0.80;;;20.50;39.70;;;;;;4968372;28;20237;-58
2022/05/30 03:44:13;;;;;;;1.13;1.03;;;20.50;39.70;;;;;;4966956;28;20232;-58
2022/05/30 03:46:38;;;;;;;1.10;1.00;;;20.50;39.70;;;;;;4968009;28;20236;-58
2022/05/30 03:49:04;;;;;;;1.00;0.90;;;20.60;39.80;;;;;;4966152;28;20319;-58
2022/05/30 03:51:30;;;;;;;1.00;0.90;;;20.50;39.70;;;;;;4965965;28;20229;-58
2022/05/30 03:53:56;;;;;;;0.90;0.90;;;20.50;39.70;;;;;;4966240;28;20434;-58
2022/05/30 03:56:21;;;;;;;1.03;1.00;;;20.50;39.70;;;;;;4966149;28;21440;-58
2022/05/30 03:58:47;;;;;;;1.20;0.87;;;20.50;39.70;;;;;;4968398;28;20224;-58
2022/05/30 04:01:12;;;;;;;1.30;0.90;;;20.50;39.70;;;;;;4971448;28;20224;-58
2022/05/30 04:03:39;;;;;;;1.00;1.00;;;20.60;39.70;;;;;;4965799;28;20593;-58
2022/05/30 04:06:05;;;;;;;1.00;1.00;;;20.50;39.70;;;;;;4967760;28;20229;-58
2022/05/30 04:08:31;;;;;;;1.23;1.13;;;20.50;39.70;;;;;;4965064;28;21048;-58
2022/05/30 04:10:57;;;;;;;1.10;1.00;;;20.60;39.70;;;;;;4969252;28;20455;-58
2022/05/30 04:13:23;;;;;;;1.30;0.90;;;20.60;39.70;;;;;;4975595;28;20691;-58
2022/05/30 04:15:49;;;;;;;1.33;1.10;;;20.60;39.70;;;;;;4974984;28;20278;-58
2022/05/30 04:18:15;;;;;;;1.07;0.97;;;20.50;39.70;;;;;;4967606;28;20967;-58
2022/05/30 04:20:41;;;;;;;1.27;1.10;;;20.50;39.70;;;;;;4975747;28;20264;-58
2022/05/30 04:23:07;;;;;;;1.20;1.10;;;20.50;39.70;;;;;;4968050;28;20558;-58
2022/05/30 04:25:33;;;;;;;1.10;1.00;;;20.50;39.70;;;;;;4976824;28;20240;-58
2022/05/30 04:27:59;;;;;;;1.10;1.00;;;20.50;39.70;;;;;;4973048;28;20464;-58
2022/05/30 04:30:25;;;;;;;0.90;0.90;;;20.50;39.70;;;;;;4968651;28;21559;-58
2022/05/30 04:32:51;;;;;;;0.90;0.90;;;20.50;39.70;;;;;;4978522;28;20232;-61
2022/05/30 04:35:18;;;;;;;2.33;1.17;;;20.50;40.40;;;;;;4971816;28;20459;-61
2022/05/30 04:37:49;;;;;;;1.03;0.90;;;20.50;39.50;;;;;;4970876;28;20247;-61
2022/05/30 04:40:18;;;;;;;1.30;1.20;;;20.50;39.30;;;;;;4975713;28;20462;-60
2022/05/30 04:42:47;;;;;;;1.00;0.87;;;20.50;39.50;;;;;;4977491;28;20537;-59
2022/05/30 04:45:14;;;;;;;1.73;1.10;;;20.50;39.30;;;;;;4975891;28;20505;-58
2022/05/30 04:47:40;;;;;;;1.00;0.90;;;20.50;39.40;;;;;;4974014;28;20513;-58
2022/05/30 04:50:13;;;;;;;1.00;0.90;;;20.50;39.50;;;;;;4971097;28;20498;-58
2022/05/30 04:52:39;;;;;;;1.73;0.90;;;20.50;39.60;;;;;;4974060;28;20852;-58
2022/05/30 04:55:05;;;;;;;1.10;1.00;;;20.50;39.60;;;;;;4971337;28;21285;-58
2022/05/30 04:57:31;;;;;;;0.90;0.90;;;20.50;39.60;;;;;;4971396;28;20562;-59
2022/05/30 04:59:58;;;;;;;0.90;0.90;;;20.60;39.70;;;;;;4974374;28;20240;-58
2022/05/30 05:02:23;;;;;;;0.90;0.90;;;20.60;39.70;;;;;;4970260;28;20221;-58
2022/05/30 05:04:49;;;;;;;0.80;0.80;;;20.60;39.70;;;;;;4970786;28;20484;-58
2022/05/30 05:07:14;;;;;;;0.90;0.90;;;20.50;39.70;;;;;;4971237;28;20231;-58
2022/05/30 05:09:54;;;;;;;0.90;0.80;;;20.50;39.70;;;;;;4970676;28;20216;-58
2022/05/30 05:12:20;;;;;;;1.00;0.90;;;20.50;39.70;;;;;;4970990;28;20216;-58
2022/05/30 05:14:46;;;;;;;1.20;1.10;;;20.50;39.70;;;;;;4970324;28;20506;-57
2022/05/30 05:17:12;;;;;;;0.93;0.90;;;20.60;39.70;;;;;;4966481;28;20687;-58
2022/05/30 05:19:41;;;;;;;2.60;1.23;;;20.60;39.70;;;;;;4968136;28;20445;-61
2022/05/30 05:22:13;;;;;;;1.30;1.00;;;20.50;39.70;;;;;;4967458;28;20618;-61
2022/05/30 05:24:38;;;;;;;1.30;0.90;;;20.50;39.70;;;;;;4969600;28;20463;-60
2022/05/30 05:27:05;;;;;;;1.00;0.90;;;20.60;39.70;;;;;;4969914;28;20478;-59
2022/05/30 05:29:31;;;;;;;1.30;1.20;;;20.60;39.70;;;;;;4967873;28;20713;-59
2022/05/30 05:31:57;;;;;;;1.20;1.10;;;20.60;39.70;;;;;;4969736;28;20550;-60
2022/05/30 05:34:23;;;;;;;1.10;1.00;;;20.60;39.70;;;;;;4964678;28;20315;-59
2022/05/30 05:36:49;;;;;;;2.30;0.90;;;20.60;39.70;;;;;;4963935;28;20558;-61
2022/05/30 05:39:18;;;;;;;1.07;0.97;;;20.60;39.70;;;;;;4970471;28;20248;-59
2022/05/30 05:41:45;;;;;;;1.23;1.00;;;20.60;39.70;;;;;;4974558;28;20465;-59
2022/05/30 05:44:11;;;;;;;1.40;0.90;;;20.60;39.70;;;;;;4966824;28;20996;-58
2022/05/30 05:46:37;;;;;;;1.20;1.07;;;20.60;39.70;;;;;;4974666;28;20565;-59
2022/05/30 05:49:04;;;;;;;1.10;1.00;;;20.60;39.70;;;;;;4958804;28;20458;-58
2022/05/30 05:51:29;;;;;;;1.17;1.07;;;20.60;39.70;;;;;;4974293;28;20239;-59
2022/05/30 05:53:56;;;;;;;1.20;1.10;;;20.60;39.70;;;;;;4972654;28;20459;-59
2022/05/30 05:56:28;;;;;;;1.33;0.90;;;20.60;39.70;;;;;;4971394;28;20233;-59
2022/05/30 05:58:53;;;;;;;1.97;1.17;;;20.60;39.70;;;;;;4974629;28;20952;-59
2022/05/30 06:01:22;;;;;;;1.20;1.10;;;20.60;39.70;;;;;;4974618;28;20529;-58
2022/05/30 06:03:51;;;;;;;1.07;1.03;;;20.60;39.70;;;;;;4968646;28;20958;-58
2022/05/30 06:06:17;;;;;;;1.20;1.00;;;20.60;39.70;;;;;;4975684;28;21302;-59
2022/05/30 06:08:42;;;;;;;1.10;1.00;;;20.60;39.70;;;;;;4970576;28;20463;-57
2022/05/30 06:11:08;;;;;;;0.90;0.90;;;20.60;39.70;;;;;;4970576;28;20255;-59
2022/05/30 06:13:38;;;;;;;1.00;0.90;;;20.60;39.70;;;;;;4974657;28;20706;-59
2022/05/30 06:16:09;;;;;;;1.47;1.13;;;20.60;39.70;;;;;;4967878;28;20225;-59
2022/05/30 06:18:35;;;;;;;1.13;1.03;;;20.60;39.70;;;;;;4972908;28;20466;-59
2022/05/30 06:21:02;;;;;;;1.30;1.20;;;20.60;39.70;;;;;;4972549;28;20486;-59
2022/05/30 06:26:08;;;;;;;1.90;1.20;;;20.60;39.70;;;;;;5004965;23;20471;-58
2022/05/30 06:28:35;;;;;;;1.30;1.20;;;20.60;39.70;;;;;;4970512;28;20462;-58
2022/05/30 06:31:09;;;;;;;1.10;1.00;;;20.60;39.70;;;;;;4968535;28;20462;-58
2022/05/30 06:33:36;;;;;;;1.20;1.10;;;20.60;39.70;;;;;;4975146;28;20470;-58
2022/05/30 06:36:04;;;;;;;1.53;1.20;;;20.60;39.70;;;;;;4974908;28;20529;-58
2022/05/30 06:38:29;;;;;;;1.00;0.90;;;20.60;39.70;;;;;;4969443;28;20433;-58
2022/05/30 06:40:55;;;;;;;1.00;0.90;;;20.60;39.70;;;;;;4967114;28;20487;-58
2022/05/30 06:43:20;;;;;;;1.00;0.90;;;20.60;39.70;;;;;;4973021;28;20327;-58
2022/05/30 06:45:47;;;;;;;1.30;1.20;;;20.60;39.70;;;;;;4971373;28;20251;-58
2022/05/30 06:48:14;;;;;;;1.20;1.10;;;20.60;39.70;;;;;;4966475;28;20228;-58
2022/05/30 06:50:40;;;;;;;1.20;1.00;;;20.60;39.70;;;;;;4966299;28;20454;-58
2022/05/30 06:53:06;;;;;;;0.80;0.80;;;20.60;39.70;;;;;;4969261;28;20812;-58
2022/05/30 06:55:32;;;;;;;1.30;1.20;;;20.60;39.70;;;;;;4968863;28;20474;-58
2022/05/30 06:58:12;;;;;;;1.10;1.00;;;20.60;39.70;;;;;;4968266;28;20290;-58
2022/05/30 07:00:38;;;;;;;1.23;1.13;;;20.60;39.70;;;;;;4970097;28;20248;-58
2022/05/30 07:03:04;;;;;;;1.20;1.00;;;20.60;39.70;;;;;;4964824;28;20815;-58
2022/05/30 07:05:30;;;;;;;1.23;1.00;;;20.60;40.10;;;;;;4979765;28;20247;-58
2022/05/30 07:07:58;;;;;;;2.00;1.57;;;20.60;39.70;;;;;;4971538;28;20232;-58
2022/05/30 07:10:27;;;;;;;1.20;1.10;;;20.60;39.80;;;;;;4969105;28;20377;-58
2022/05/30 07:12:53;;;;;;;1.10;1.00;;;20.60;39.70;;;;;;4975072;28;20912;-58
2022/05/30 07:15:18;;;;;;;1.10;1.00;;;20.60;39.70;;;;;;4977095;28;20542;-58
2022/05/30 07:17:44;;;;;;;1.20;1.10;;;20.60;39.70;;;;;;4964707;28;20241;-58
2022/05/30 07:20:11;;;;;;;1.20;1.10;;;20.60;39.70;;;;;;4972964;28;20263;-58
2022/05/30 07:22:36;;;;;;;1.17;1.07;;;20.60;39.80;;;;;;4974036;28;20251;-58
2022/05/30 07:25:02;;;;;;;1.10;1.00;;;20.60;39.70;;;;;;4973168;28;20984;-58
2022/05/30 07:27:28;;;;;;;1.40;1.10;;;20.60;39.70;;;;;;4973646;28;20706;-58
2022/05/30 07:29:54;;;;;;;1.10;1.00;;;20.60;39.70;;;;;;4970515;28;20236;-58
2022/05/30 07:32:20;;;;;;;1.10;1.00;;;20.60;39.70;;;;;;4976206;28;20440;-58
2022/05/30 07:34:45;;;;;;;1.30;1.20;;;20.60;39.70;;;;;;4973223;28;20232;-58
2022/05/30 07:37:11;;;;;;;1.23;1.13;;;20.60;39.70;;;;;;4972251;28;20224;-58
2022/05/30 07:39:37;;;;;;;1.10;1.00;;;20.60;39.70;;;;;;4970734;28;20252;-58
2022/05/30 07:42:04;;;;;;;1.10;1.03;;;20.60;39.70;;;;;;4971676;28;20233;-58
2022/05/30 07:44:30;;;;;;;1.30;1.07;;;20.60;39.70;;;;;;4970664;28;20434;-58
2022/05/30 07:46:56;;;;;;;1.13;1.03;;;20.60;39.80;;;;;;4970235;28;20477;-58
2022/05/30 07:49:22;;;;;;;1.17;1.07;;;20.60;39.70;;;;;;4966448;28;20229;-58
2022/05/30 07:51:47;;;;;;;1.40;1.30;;;20.60;39.70;;;;;;4966693;28;20964;-58
2022/05/30 07:54:13;;;;;;;1.20;1.10;;;20.60;39.70;;;;;;4971606;28;20609;-58
2022/05/30 07:56:39;;;;;;;1.30;1.20;;;20.60;40.50;;;;;;4970291;28;20323;-58
2022/05/30 07:59:04;;;;;;;1.67;1.20;;;20.60;39.70;;;;;;4968300;28;20236;-58
2022/05/30 08:01:30;;;;;;;1.27;1.10;;;20.60;39.70;;;;;;4969537;28;20232;-58
2022/05/30 08:03:56;;;;;;;1.17;1.07;;;20.60;39.70;;;;;;4968519;28;20846;-58
2022/05/30 08:06:25;;;;;;;1.10;1.00;;;20.60;39.70;;;;;;4968721;28;20648;-58
2022/05/30 08:08:52;;;;;;;1.27;1.17;;;20.60;39.70;;;;;;4968836;28;21605;-58
2022/05/30 08:11:18;;;;;;;1.27;1.17;;;20.60;39.70;;;;;;4966722;28;20860;-59
2022/05/30 08:13:47;;;;;;;1.30;1.20;;;20.60;39.80;;;;;;4967985;28;20491;-59
2022/05/30 08:16:16;;;;;;;1.30;1.20;;;20.60;39.70;;;;;;4968596;28;20811;-58
2022/05/30 08:18:42;;;;;;;1.20;1.10;;;20.60;39.70;;;;;;4974372;28;20533;-58
2022/05/30 08:21:08;;;;;;;1.07;0.97;;;20.60;39.70;;;;;;4973735;28;20489;-58
2022/05/30 08:23:33;;;;;;;1.20;1.20;;;20.60;40.00;;;;;;4967425;28;20239;-58
2022/05/30 08:25:59;;;;;;;1.27;1.17;;;20.60;39.70;;;;;;4963708;28;20270;-58
2022/05/30 08:28:25;;;;;;;1.30;1.03;;;20.60;39.70;;;;;;4971188;28;20232;-58
2022/05/30 08:30:51;;;;;;;1.23;1.13;;;20.60;39.70;;;;;;4970630;28;20307;-58
2022/05/30 08:33:19;;;;;;;1.13;1.07;;;20.60;39.70;;;;;;4974569;28;20307;-58
2022/05/30 08:35:45;;;;;;;1.20;1.10;;;20.60;39.70;;;;;;4969893;28;20241;-58
2022/05/30 08:38:11;;;;;;;1.17;1.07;;;20.60;39.70;;;;;;4966100;28;20470;-58
2022/05/30 08:43:37;;;;;;;1.30;1.17;;;20.60;39.70;;;;;;4969703;28;20503;-59
2022/05/30 08:46:29;;;;;;;1.50;1.10;;;20.60;39.70;;;;;;4973233;28;20509;-58
2022/05/30 08:49:00;;;;;;;1.10;1.00;;;20.60;39.70;;;;;;4961029;28;20578;-59
2022/05/30 08:52:20;;;;;;;1.27;1.17;;;20.60;39.70;;;;;;4963892;28;20467;-58
2022/05/30 08:55:18;;;;;;;1.40;1.30;;;20.60;39.70;;;;;;4930657;28;20479;-58
2022/05/30 08:58:21;;;;;;;2.40;1.40;;;20.60;39.70;;;;;;4992885;28;20466;-58
2022/05/30 09:00:55;;;;;;;2.83;1.47;;;20.60;39.70;;;;;;4992945;28;20481;-58
2022/05/30 09:03:38;;;;;;;3.50;1.60;;;20.50;39.70;;;;;;4987792;28;20493;-57
2022/05/30 09:06:19;;;;;;;1.43;1.33;;;20.60;39.70;;;;;;4988929;28;20904;-58
2022/05/30 09:09:31;;;;;;;4.93;1.40;;;20.60;39.70;;;;;;4991554;28;20557;-58
2022/05/30 09:12:03;;;;;;;1.37;1.27;;;20.60;39.70;;;;;;4956775;28;21267;-57
2022/05/30 09:14:37;;;;;;;1.57;1.40;;;20.60;39.80;;;;;;4989726;28;20448;-57
2022/05/30 09:17:09;;;;;;;1.50;1.40;;;20.60;39.70;;;;;;4986253;28;20461;-58
2022/05/30 09:19:35;;;;;;;1.30;1.20;;;20.50;39.70;;;;;;4989311;28;20599;-58
2022/05/30 09:22:04;;;;;;;1.60;1.50;;;20.50;39.70;;;;;;4988491;28;20953;-58
2022/05/30 09:24:32;;;;;;;3.17;1.30;;;20.50;39.70;;;;;;4987034;28;20255;-58
2022/05/30 09:27:00;;;;;;;1.87;1.30;;;20.50;39.70;;;;;;4989780;28;20464;-58
2022/05/30 09:29:41;;;;;;;4.60;1.60;;;20.50;39.70;;;;;;4994419;28;20543;-58
2022/05/30 09:32:33;;;;;;;3.10;1.30;;;20.50;39.70;;;;;;4991283;28;20816;-57
2022/05/30 09:35:22;;;;;;;2.13;1.40;;;20.50;39.70;;;;;;4991459;28;20833;-59
2022/05/30 09:38:07;;;;;;;1.47;1.37;;;20.50;39.70;;;;;;4988062;28;20474;-58
2022/05/30 09:40:41;;;;;;;1.40;1.30;;;20.50;39.70;;;;;;4991292;28;20482;-58
2022/05/30 09:43:07;;;;;;;2.63;1.30;;;20.50;39.70;;;;;;4982204;28;20955;-58
2022/05/30 09:45:34;;;;;;;1.53;1.43;;;20.50;39.70;;;;;;4988689;28;20508;-57
2022/05/30 09:48:20;;;;;;;1.50;1.40;;;20.50;39.70;;;;;;4981152;28;20323;-58
2022/05/30 09:50:52;;;;;;;1.37;1.20;;;20.50;39.70;;;;;;4992538;28;20461;-57
2022/05/30 09:53:36;;;;;;;1.20;1.10;;;20.50;39.70;;;;;;4995543;28;20552;-58
2022/05/30 09:56:02;;;;;;;1.80;1.30;;;20.50;39.70;;;;;;4990496;28;20465;-57
2022/05/30 09:59:04;;;;;;;1.67;1.30;;;20.50;39.70;;;;;;4984049;28;21049;-58
2022/05/30 10:01:33;;;;;;;1.50;1.40;;;20.50;39.70;;;;;;4990828;28;20293;-58
2022/05/30 10:04:31;;;;;;;1.87;1.20;;;20.50;39.70;;;;;;4988549;28;20517;-58
2022/05/30 10:07:18;;;;;;;1.50;1.30;;;20.50;39.70;;;;;;4992348;28;21419;-58
2022/05/30 10:09:53;;;;;;;1.40;1.30;;;20.50;39.70;;;;;;4993768;28;20453;-58
2022/05/30 10:12:37;;;;;;;1.40;1.30;;;20.50;39.70;;;;;;4985459;28;20460;-57
2022/05/30 10:15:27;;;;;;;1.30;1.20;;;20.50;39.70;;;;;;4993262;28;20860;-58
2022/05/30 10:17:56;;;;;;;1.50;1.40;;;20.50;39.70;;;;;;4990235;28;20513;-58
2022/05/30 10:20:36;;;;;;;1.40;1.20;;;20.50;39.70;;;;;;4993420;28;20535;-58
2022/05/30 10:28:59;;;;;;;1.43;1.33;;;20.50;39.70;;;;;;4992847;28;20458;-58
2022/05/30 10:32:07;;;;;;;1.40;1.27;;;20.50;39.70;;;;;;4990614;28;20449;-58
2022/05/30 10:35:11;;;;;;;4.60;1.43;;;20.50;39.70;;;;;;4957094;28;20466;-58
2022/05/30 10:38:03;;;;;;;1.70;1.40;;;20.50;39.70;;;;;;4981081;28;21164;-58
2022/05/30 10:40:36;;;;;;;1.30;1.10;;;20.50;39.70;;;;;;4988609;28;20983;-58
2022/05/30 10:43:18;;;;;;;1.43;1.33;;;20.50;39.70;;;;;;4987804;28;20432;-58
2022/05/30 10:45:57;;;;;;;1.30;1.20;;;20.50;39.70;;;;;;4985171;28;20466;-58
2022/05/30 10:48:31;;;;;;;1.40;1.30;;;20.50;39.70;;;;;;4992933;28;20492;-58
2022/05/30 10:51:22;;;;;;;6.60;2.00;;;20.50;39.70;;;;;;4987866;28;20676;-58
2022/05/30 10:54:40;;;;;;;1.47;1.37;;;20.50;39.70;;;;;;4990870;28;20466;-58
2022/05/30 10:57:29;;;;;;;1.43;1.20;;;20.50;39.70;;;;;;4971792;28;20496;-58
2022/05/30 11:00:11;;;;;;;3.10;1.33;;;20.50;39.70;;;;;;4985043;28;20491;-58
2022/05/30 11:02:46;;;;;;;2.10;1.20;;;20.50;39.70;;;;;;4988909;28;20834;-57
2022/05/30 11:05:37;;;;;;;1.57;1.47;;;20.50;39.70;;;;;;4990618;28;20484;-58
2022/05/30 11:08:16;;;;;;;1.63;1.53;;;20.50;39.70;;;;;;4983860;28;20492;-58
2022/05/30 11:10:59;;;;;;;1.70;1.20;;;20.50;39.70;;;;;;4986686;28;21432;-58
2022/05/30 11:13:33;;;;;;;1.30;1.20;;;20.50;39.70;;;;;;4993882;28;20553;-58
2022/05/30 11:16:14;;;;;;;1.33;1.23;;;20.50;39.70;;;;;;4993193;28;20970;-58
2022/05/30 11:19:08;;;;;;;1.30;1.20;;;20.50;39.70;;;;;;4991576;28;20469;-57
2022/05/30 11:21:42;;;;;;;1.20;1.10;;;20.50;39.70;;;;;;4972825;28;20475;-57
2022/05/30 11:24:08;;;;;;;1.37;1.27;;;20.50;39.70;;;;;;4990921;28;20472;-57
2022/05/30 11:26:54;;;;;;;1.40;1.30;;;20.50;39.70;;;;;;4973848;28;21091;-58
2022/05/30 11:29:48;;;;;;;1.30;1.20;;;20.50;39.70;;;;;;4988722;28;20726;-57
2022/05/30 11:32:32;;;;;;;1.30;1.20;;;20.50;39.70;;;;;;4987940;28;20449;-57
2022/05/30 11:35:24;;;;;;;1.30;1.10;;;20.50;39.70;;;;;;4991184;28;20465;-58
2022/05/30 11:38:15;;;;;;;1.30;1.20;;;20.50;39.70;;;;;;4989095;28;21095;-59
2022/05/30 11:40:49;;;;;;;1.33;1.23;;;20.50;39.70;;;;;;4988014;28;20581;-59
2022/05/30 11:43:15;;;;;;;1.43;1.33;;;20.50;39.70;;;;;;4988067;28;21003;-59
2022/05/30 11:45:54;;;;;;;1.30;1.20;;;20.50;39.70;;;;;;4989320;28;20478;-61
2022/05/30 11:48:38;;;;;;;1.40;1.30;;;20.50;39.70;;;;;;4990558;28;20244;-61
2022/05/30 11:51:33;;;;;;;1.30;1.20;;;20.50;39.70;;;;;;4984229;28;20827;-60
2022/05/30 11:54:36;;;;;;;1.77;1.10;;;20.50;39.70;;;;;;4972427;28;20880;-60
2022/05/30 11:57:35;;;;;;;1.20;1.10;;;20.50;39.70;;;;;;4985626;28;20462;-60
2022/05/30 12:00:14;;;;;;;1.10;1.00;;;20.50;39.70;;;;;;4988501;28;21064;-60
2022/05/30 12:02:56;;;;;;;1.97;1.10;;;20.50;39.70;;;;;;4986846;28;20468;-60
2022/05/30 12:05:50;;;;;;;1.10;1.00;;;20.50;39.70;;;;;;4990517;28;20460;-60
2022/05/30 12:09:00;;;;;;;1.50;1.40;;;20.50;39.70;;;;;;4986394;28;20456;-60
2022/05/30 12:11:49;;;;;;;1.73;1.63;;;20.50;39.70;;;;;;4965610;28;20465;-59
2022/05/30 12:14:40;;;;;;;2.47;2.27;;;20.50;39.70;;;;;;4985823;28;20957;-61
2022/05/30 12:23:48;;;;;;;3.40;2.87;;;20.50;39.70;;;;;;4985808;28;20462;-60
2022/05/30 12:24:05;;;;;;;4.50;4.10;;;20.50;39.70;;;;;;4984198;28;20475;-60
2022/05/30 12:26:49;;;;;;;4.90;4.40;;;20.50;39.70;;;;;;4988635;28;20532;-60
2022/05/30 12:29:39;;;;;;;6.37;5.00;;;20.50;39.70;;;;;;4987472;28;20478;-60
2022/05/30 12:32:20;;;;;;;7.20;5.47;;;20.50;39.70;;;;;;4989990;28;20484;-60
2022/05/30 12:35:01;;;;;;;6.67;5.37;;;20.50;39.70;;;;;;4995645;28;20481;-60
2022/05/30 12:37:44;;;;;;;7.73;5.43;;;20.50;39.70;;;;;;4987878;28;20462;-60
2022/05/30 12:40:19;;;;;;;6.83;6.13;;;20.50;39.70;;;;;;4996431;28;21040;-62
2022/05/30 12:42:52;;;;;;;8.97;7.30;;;20.50;39.70;;;;;;4993293;28;20464;-60
2022/05/30 12:45:33;;;;;;;9.77;7.60;;;20.50;39.70;;;;;;4986656;28;21097;-60
2022/05/30 12:48:01;;;;;;;8.13;7.13;;;20.50;39.70;;;;;;4994239;28;20519;-60
2022/05/30 12:50:29;;;;;;;10.27;7.83;;;20.50;39.70;;;;;;4991193;28;20490;-60
2022/05/30 12:52:58;;;;;;;11.60;8.70;;;20.50;39.70;;;;;;4991373;28;20457;-59
2022/05/30 12:55:35;;;;;;;14.03;9.43;;;20.50;39.70;;;;;;4992820;28;20458;-60
2022/05/30 12:58:01;;;;;;;11.47;9.60;;;20.50;39.70;;;;;;4986053;28;20870;-60
2022/05/30 13:00:36;;;;;;;14.87;10.83;;;20.50;39.70;;;;;;4992834;28;20525;-60
2022/05/30 13:03:09;;;;;;;11.50;9.10;;;20.50;39.70;;;;;;4989869;28;20450;-59
2022/05/30 13:05:40;;;;;;;17.57;9.00;;;20.50;39.70;;;;;;4990723;28;20542;-60
2022/05/30 13:08:43;;;;;;;16.90;8.90;;;20.50;39.70;;;;;;4993836;28;20904;-59
2022/05/30 13:11:12;;;;;;;16.70;9.50;;;20.50;39.70;;;;;;4990462;28;20466;-60
2022/05/30 13:13:41;;;;;;;14.20;9.47;;;20.50;39.70;;;;;;4993198;28;20447;-59
2022/05/30 13:16:24;;;;;;;14.37;10.23;;;20.50;39.70;;;;;;4992797;28;20448;-59
2022/05/30 13:18:50;;;;;;;16.07;10.17;;;20.50;39.70;;;;;;4987667;28;20564;-59
2022/05/30 13:21:19;;;;;;;16.23;10.10;;;20.50;39.70;;;;;;4991538;28;20936;-59
2022/05/30 13:23:45;;;;;;;18.43;10.90;;;20.50;39.70;;;;;;4987982;28;20290;-59
2022/05/30 13:26:15;;;;;;;15.37;10.87;;;20.50;39.70;;;;;;4987725;28;20481;-59
2022/05/30 13:28:43;;;;;;;15.33;11.13;;;20.50;39.70;;;;;;4988723;28;20241;-60
2022/05/30 13:31:12;;;;;;;17.53;11.57;;;20.50;39.70;;;;;;4990448;28;20476;-59
2022/05/30 13:33:41;;;;;;;14.03;10.17;;;20.50;39.70;;;;;;4990962;28;20478;-59
2022/05/30 13:36:20;;;;;;;18.93;11.40;;;20.50;39.70;;;;;;4989204;28;20477;-59